Time;durP1;ratioP1;P1;durP2;ratioP2;P2;SDS_P1;SDS_P2;PMS_P1;PMS_P2;Temp;Humidity;BMP_temperature;BMP_pressure;BME280_temperature;BME280_humidity;BME280_pressure;Samples;Min_cycle;Max_cycle;Signal;HPM_P1;HPM_P2
2023/10/24 05:01:55;;;;;;;25.90;9.63;;;;;;;;;;5382075;23;20582;-70
2023/10/24 05:04:21;;;;;;;16.90;8.47;;;;;;;;;;4974166;28;20915;-70
2023/10/24 05:06:47;;;;;;;20.90;8.97;;;;;;;;;;4957039;28;20510;-70
2023/10/24 05:09:16;;;;;;;14.07;8.27;;;;;;;;;;4975963;28;20922;-69
2023/10/24 05:11:41;;;;;;;16.80;8.73;;;;;;;;;;4973587;28;20499;-71
2023/10/24 05:14:07;;;;;;;19.57;9.33;;;;;;;;;;4997296;23;20503;-70
2023/10/24 05:16:33;;;;;;;19.10;8.47;;;;;;;;;;4973238;28;20434;-70
2023/10/24 05:18:59;;;;;;;24.27;9.60;;;;;;;;;;4973116;28;20894;-70
2023/10/24 05:21:25;;;;;;;18.13;9.70;;;;;;;;;;4973443;28;20927;-69
2023/10/24 05:23:51;;;;;;;16.20;8.47;;;;;;;;;;4972760;28;21008;-70
2023/10/24 05:26:17;;;;;;;16.27;8.17;;;;;;;;;;4973044;28;20447;-71
2023/10/24 05:28:43;;;;;;;22.43;9.43;;;;;;;;;;4973310;28;20415;-69
2023/10/24 05:31:09;;;;;;;18.63;9.40;;;;;;;;;;4972744;28;20987;-70
2023/10/24 05:33:36;;;;;;;16.63;10.10;;;;;;;;;;4973029;28;20455;-70
2023/10/24 05:36:03;;;;;;;15.23;9.60;;;;;;;;;;4972936;28;20411;-73
2023/10/24 05:38:29;;;;;;;22.00;10.70;;;;;;;;;;4970984;28;20433;-73
2023/10/24 05:40:55;;;;;;;17.27;9.80;;;;;;;;;;4970889;28;20463;-72
2023/10/24 05:43:21;;;;;;;15.07;8.63;;;;;;;;;;4973294;28;20439;-72
2023/10/24 05:45:47;;;;;;;22.57;9.60;;;;;;;;;;4960158;28;20769;-71
2023/10/24 05:48:13;;;;;;;19.97;10.43;;;;;;;;;;4970208;28;20482;-72
2023/10/24 05:50:39;;;;;;;14.40;8.10;;;;;;;;;;4972559;28;20416;-71
2023/10/24 05:53:05;;;;;;;22.03;9.50;;;;;;;;;;4973145;28;20440;-70
2023/10/24 05:55:33;;;;;;;17.27;8.90;;;;;;;;;;4972729;28;20416;-70
2023/10/24 05:57:59;;;;;;;11.70;8.30;;;;;;;;;;4972798;28;20923;-72
2023/10/24 06:00:25;;;;;;;15.07;8.07;;;;;;;;;;4972283;28;20491;-71
2023/10/24 06:02:51;;;;;;;16.07;8.97;;;;;;;;;;4972635;28;20411;-73
2023/10/24 06:05:16;;;;;;;16.03;8.87;;;;;;;;;;4965038;28;20415;-72
2023/10/24 06:07:42;;;;;;;17.27;9.20;;;;;;;;;;4953384;29;20444;-72
2023/10/24 06:10:09;;;;;;;13.93;7.50;;;;;;;;;;4945320;28;20590;-70
2023/10/24 06:12:35;;;;;;;14.60;5.20;;;;;;;;;;4943186;28;20572;-68
2023/10/24 06:15:03;;;;;;;19.07;10.57;;;;;;;;;;4961903;28;20467;-67
2023/10/24 06:17:29;;;;;;;13.80;7.30;;;;;;;;;;4955262;28;20408;-67
2023/10/24 06:19:55;;;;;;;17.53;8.63;;;;;;;;;;4971082;28;20510;-69
2023/10/24 06:22:21;;;;;;;13.30;8.53;;;;;;;;;;4971612;28;20408;-68
2023/10/24 06:24:47;;;;;;;19.60;9.63;;;;;;;;;;4972633;28;20451;-74
2023/10/24 06:27:13;;;;;;;21.63;8.93;;;;;;;;;;4974542;28;20778;-74
2023/10/24 06:29:40;;;;;;;16.80;9.40;;;;;;;;;;4975800;28;20415;-74
2023/10/24 06:32:06;;;;;;;23.53;10.13;;;;;;;;;;4976215;28;20419;-73
2023/10/24 06:34:33;;;;;;;15.50;8.97;;;;;;;;;;4975851;28;20447;-72
2023/10/24 06:36:59;;;;;;;18.70;8.73;;;;;;;;;;4976040;28;20422;-73
2023/10/24 06:39:25;;;;;;;26.00;9.80;;;;;;;;;;4974802;28;20471;-74
2023/10/24 06:41:51;;;;;;;14.90;8.33;;;;;;;;;;4976105;28;20418;-73
2023/10/24 06:44:17;;;;;;;20.30;9.70;;;;;;;;;;4975744;28;20522;-73
2023/10/24 06:46:43;;;;;;;19.37;9.00;;;;;;;;;;4975326;28;20431;-72
2023/10/24 06:49:09;;;;;;;24.60;10.00;;;;;;;;;;4977039;28;20502;-73
2023/10/24 06:51:35;;;;;;;27.07;11.10;;;;;;;;;;4975402;28;20907;-72
2023/10/24 06:54:01;;;;;;;13.57;9.53;;;;;;;;;;4977008;28;20435;-71
2023/10/24 06:56:27;;;;;;;19.80;9.27;;;;;;;;;;4976532;28;20482;-71
2023/10/24 06:58:53;;;;;;;19.70;9.57;;;;;;;;;;4969626;28;20436;-70
2023/10/24 07:01:19;;;;;;;20.63;10.83;;;;;;;;;;4971577;28;20598;-70
2023/10/24 07:03:45;;;;;;;16.20;9.30;;;;;;;;;;4964718;28;20444;-71
2023/10/24 07:06:11;;;;;;;14.73;9.67;;;;;;;;;;4975004;28;20434;-70
2023/10/24 07:08:38;;;;;;;16.30;8.60;;;;;;;;;;4975550;28;20434;-72
2023/10/24 07:11:04;;;;;;;20.90;9.53;;;;;;;;;;4974178;28;20434;-71
2023/10/24 07:13:30;;;;;;;17.83;9.77;;;;;;;;;;4974912;28;20463;-71
2023/10/24 07:15:56;;;;;;;19.37;9.57;;;;;;;;;;4966829;28;20436;-72
2023/10/24 07:18:22;;;;;;;20.97;9.97;;;;;;;;;;4974726;28;20507;-73
2023/10/24 07:20:48;;;;;;;18.73;10.63;;;;;;;;;;4962317;28;20469;-70
2023/10/24 07:23:14;;;;;;;17.50;9.37;;;;;;;;;;4972631;28;20471;-71
2023/10/24 07:25:41;;;;;;;16.00;9.87;;;;;;;;;;4963935;28;20791;-73
2023/10/24 07:28:07;;;;;;;14.63;9.63;;;;;;;;;;4955811;29;20413;-70
2023/10/24 07:30:33;;;;;;;21.53;9.80;;;;;;;;;;4955705;28;20912;-72
2023/10/24 07:32:59;;;;;;;22.90;11.23;;;;;;;;;;4957370;28;20475;-71
2023/10/24 07:35:25;;;;;;;24.80;11.50;;;;;;;;;;4974292;28;20482;-71
2023/10/24 07:37:51;;;;;;;16.77;9.00;;;;;;;;;;4975074;28;20443;-72
2023/10/24 07:40:17;;;;;;;19.80;9.73;;;;;;;;;;4974331;28;20502;-71
2023/10/24 07:42:43;;;;;;;20.07;9.57;;;;;;;;;;4974764;28;20463;-71
2023/10/24 07:45:11;;;;;;;15.27;9.97;;;;;;;;;;4951256;29;20433;-71
2023/10/24 07:47:37;;;;;;;17.27;10.40;;;;;;;;;;4955587;29;20765;-72
2023/10/24 07:50:03;;;;;;;17.97;10.67;;;;;;;;;;4955566;28;20520;-73
2023/10/24 07:52:29;;;;;;;18.33;11.10;;;;;;;;;;4955376;29;20417;-73
2023/10/24 07:54:55;;;;;;;21.60;11.23;;;;;;;;;;4955068;28;20476;-72
2023/10/24 07:57:21;;;;;;;20.97;10.27;;;;;;;;;;4968873;28;20935;-72
2023/10/24 07:59:47;;;;;;;19.37;9.93;;;;;;;;;;4972559;28;20471;-72
2023/10/24 08:02:13;;;;;;;17.80;10.80;;;;;;;;;;4973495;28;20424;-73
2023/10/24 08:04:39;;;;;;;20.07;10.90;;;;;;;;;;4973738;28;20443;-72
2023/10/24 08:07:05;;;;;;;18.80;11.50;;;;;;;;;;4974018;28;20419;-73
2023/10/24 08:09:31;;;;;;;18.93;10.50;;;;;;;;;;4969446;28;20468;-72
2023/10/24 08:11:57;;;;;;;20.87;11.77;;;;;;;;;;4957435;28;20452;-72
2023/10/24 08:14:23;;;;;;;22.30;12.57;;;;;;;;;;4960442;28;20459;-72
2023/10/24 08:16:49;;;;;;;25.47;10.67;;;;;;;;;;4958268;28;20451;-73
2023/10/24 08:19:15;;;;;;;20.47;10.13;;;;;;;;;;4974389;28;20959;-74
2023/10/24 08:21:41;;;;;;;26.13;11.40;;;;;;;;;;4961140;28;20451;-73
2023/10/24 08:24:07;;;;;;;24.03;11.83;;;;;;;;;;4974166;28;21026;-71
2023/10/24 08:26:33;;;;;;;20.63;10.20;;;;;;;;;;4973911;28;20931;-70
2023/10/24 08:28:59;;;;;;;20.87;12.60;;;;;;;;;;4968723;28;20438;-70
2023/10/24 08:31:25;;;;;;;18.03;10.67;;;;;;;;;;4961029;28;20427;-70
2023/10/24 08:33:51;;;;;;;20.77;11.30;;;;;;;;;;4954763;29;20425;-70
2023/10/24 08:36:16;;;;;;;16.80;10.33;;;;;;;;;;4960280;28;20512;-71
2023/10/24 08:38:42;;;;;;;20.37;10.03;;;;;;;;;;4954633;29;20416;-70
2023/10/24 08:41:08;;;;;;;22.07;12.10;;;;;;;;;;4954450;29;20460;-71
2023/10/24 08:43:35;;;;;;;22.37;12.30;;;;;;;;;;4954588;29;20492;-72
2023/10/24 08:46:01;;;;;;;20.40;12.33;;;;;;;;;;4954697;28;20432;-70
2023/10/24 08:48:28;;;;;;;25.63;14.00;;;;;;;;;;4953793;28;20471;-73
2023/10/24 08:50:54;;;;;;;22.97;12.97;;;;;;;;;;4962604;28;20416;-71
2023/10/24 08:53:20;;;;;;;27.27;12.87;;;;;;;;;;4973371;28;20432;-71
2023/10/24 08:55:52;;;;;;;24.60;13.73;;;;;;;;;;4966023;28;20442;-70
2023/10/24 08:58:19;;;;;;;23.87;15.47;;;;;;;;;;4967261;28;20443;-71
2023/10/24 09:00:46;;;;;;;26.23;13.67;;;;;;;;;;4972870;28;20826;-71
2023/10/24 09:03:14;;;;;;;23.80;12.20;;;;;;;;;;4972048;28;20455;-71
2023/10/24 09:05:42;;;;;;;21.93;13.70;;;;;;;;;;4962208;28;20422;-73
2023/10/24 09:08:08;;;;;;;25.33;13.20;;;;;;;;;;4973512;28;20412;-73
2023/10/24 09:10:33;;;;;;;26.17;13.67;;;;;;;;;;4963609;28;20539;-71
2023/10/24 09:12:59;;;;;;;22.90;13.00;;;;;;;;;;4953892;29;20416;-70
2023/10/24 09:15:25;;;;;;;26.53;13.70;;;;;;;;;;4955912;28;20447;-70
2023/10/24 09:17:55;;;;;;;23.47;13.63;;;;;;;;;;4953818;29;20417;-70
2023/10/24 09:20:21;;;;;;;28.20;15.70;;;;;;;;;;4953567;28;20460;-69
2023/10/24 09:22:47;;;;;;;27.70;14.87;;;;;;;;;;4953669;29;20405;-70
2023/10/24 09:25:14;;;;;;;27.23;13.43;;;;;;;;;;4966879;28;20482;-70
2023/10/24 09:27:40;;;;;;;25.07;13.47;;;;;;;;;;4966443;28;20427;-70
2023/10/24 09:30:13;;;;;;;23.93;13.60;;;;;;;;;;4972512;28;20427;-72
2023/10/24 09:32:39;;;;;;;24.43;12.60;;;;;;;;;;4960948;28;20443;-70
2023/10/24 09:35:06;;;;;;;21.20;12.70;;;;;;;;;;4972757;28;20472;-70
2023/10/24 09:37:32;;;;;;;19.43;12.07;;;;;;;;;;4972805;28;20424;-70
2023/10/24 09:40:01;;;;;;;21.83;12.60;;;;;;;;;;4973059;28;20471;-71
2023/10/24 09:42:28;;;;;;;23.83;12.47;;;;;;;;;;4972882;28;20480;-70
2023/10/24 09:44:55;;;;;;;23.13;13.90;;;;;;;;;;4973088;28;20436;-71
2023/10/24 09:47:22;;;;;;;19.37;12.60;;;;;;;;;;4955705;28;20428;-71
2023/10/24 09:49:52;;;;;;;29.20;13.27;;;;;;;;;;4953794;29;20507;-71
2023/10/24 09:52:19;;;;;;;17.30;11.67;;;;;;;;;;4960694;28;20490;-70
2023/10/24 09:54:47;;;;;;;22.33;12.40;;;;;;;;;;4962949;28;20447;-73
2023/10/24 09:57:14;;;;;;;24.73;13.70;;;;;;;;;;4972806;28;20963;-72
2023/10/24 09:59:41;;;;;;;29.57;15.93;;;;;;;;;;4971222;28;20833;-72
2023/10/24 10:02:08;;;;;;;25.13;15.93;;;;;;;;;;4965822;28;20490;-70
2023/10/24 10:04:34;;;;;;;19.90;14.00;;;;;;;;;;4968312;28;20478;-68
2023/10/24 10:07:01;;;;;;;33.50;16.80;;;;;;;;;;4957067;28;20857;-73
2023/10/24 10:09:27;;;;;;;31.23;16.50;;;;;;;;;;4967269;28;20848;-69
2023/10/24 10:11:53;;;;;;;26.40;15.90;;;;;;;;;;4957071;29;20417;-69
2023/10/24 10:14:32;;;;;;;30.13;16.20;;;;;;;;;;4960348;28;20993;-68
2023/10/24 10:16:58;;;;;;;34.70;17.13;;;;;;;;;;4956833;28;20791;-68
2023/10/24 10:19:24;;;;;;;27.13;16.33;;;;;;;;;;4956453;28;20467;-68
2023/10/24 10:21:59;;;;;;;33.23;15.83;;;;;;;;;;4968315;28;20420;-67
2023/10/24 10:24:40;;;;;;;25.97;15.97;;;;;;;;;;4967837;28;20796;-69
2023/10/24 10:27:06;;;;;;;29.47;17.90;;;;;;;;;;4962273;28;20429;-71
2023/10/24 10:29:38;;;;;;;35.17;15.83;;;;;;;;;;4969496;28;20452;-71
2023/10/24 10:32:13;;;;;;;38.00;20.33;;;;;;;;;;4969495;28;20424;-70
2023/10/24 10:34:39;;;;;;;27.70;16.27;;;;;;;;;;4964130;28;20482;-70
2023/10/24 10:37:05;;;;;;;30.97;15.90;;;;;;;;;;4969860;28;20455;-69
2023/10/24 10:39:31;;;;;;;27.47;15.00;;;;;;;;;;4966223;28;21033;-70
2023/10/24 10:41:58;;;;;;;39.63;18.93;;;;;;;;;;4965103;28;20420;-71
2023/10/24 10:44:40;;;;;;;28.73;15.90;;;;;;;;;;4960120;28;20961;-71
2023/10/24 10:47:08;;;;;;;34.30;16.30;;;;;;;;;;4969279;28;20787;-71
2023/10/24 10:49:53;;;;;;;29.53;13.50;;;;;;;;;;4967419;28;20455;-72
2023/10/24 10:52:24;;;;;;;23.40;14.73;;;;;;;;;;4961049;28;20597;-73
2023/10/24 10:55:05;;;;;;;24.27;14.70;;;;;;;;;;4956198;28;20444;-73
2023/10/24 10:57:37;;;;;;;28.90;16.90;;;;;;;;;;4964080;28;20474;-72
2023/10/24 11:00:04;;;;;;;25.70;14.57;;;;;;;;;;4968094;28;20947;-71
2023/10/24 11:02:49;;;;;;;29.53;15.20;;;;;;;;;;4960234;28;20760;-72
2023/10/24 11:05:35;;;;;;;24.20;14.73;;;;;;;;;;4970922;28;20427;-71
2023/10/24 11:08:02;;;;;;;24.97;13.00;;;;;;;;;;4916796;28;20420;-72
2023/10/24 11:10:47;;;;;;;20.67;12.13;;;;;;;;;;4961621;28;20482;-76
2023/10/24 11:13:31;;;;;;;25.70;13.40;;;;;;;;;;4979251;23;20824;-72
2023/10/24 11:15:57;;;;;;;23.00;14.07;;;;;;;;;;4955659;28;20425;-73
2023/10/24 11:18:23;;;;;;;22.50;13.13;;;;;;;;;;4955729;29;20440;-72
2023/10/24 11:20:49;;;;;;;25.97;13.17;;;;;;;;;;4956366;29;20840;-74
2023/10/24 11:23:15;;;;;;;20.57;11.50;;;;;;;;;;4956223;29;20421;-74
2023/10/24 11:25:41;;;;;;;21.13;13.60;;;;;;;;;;4956727;29;20417;-73
2023/10/24 11:28:08;;;;;;;34.07;17.33;;;;;;;;;;4955670;29;20428;-72
2023/10/24 11:30:34;;;;;;;24.00;15.07;;;;;;;;;;4955729;28;20432;-72
2023/10/24 11:33:02;;;;;;;28.77;15.77;;;;;;;;;;4956211;28;20417;-71
2023/10/24 11:35:28;;;;;;;32.37;19.70;;;;;;;;;;4954322;29;20448;-73
2023/10/24 11:37:54;;;;;;;29.23;15.23;;;;;;;;;;4955594;29;20465;-73
2023/10/24 11:40:20;;;;;;;28.83;15.20;;;;;;;;;;4958449;29;20475;-74
2023/10/24 11:42:46;;;;;;;23.87;13.83;;;;;;;;;;4952509;29;20912;-73
2023/10/24 11:45:12;;;;;;;23.70;14.20;;;;;;;;;;4955730;29;20449;-71
2023/10/24 11:47:38;;;;;;;17.60;13.03;;;;;;;;;;4956552;29;20416;-72
2023/10/24 11:50:04;;;;;;;28.30;15.77;;;;;;;;;;4956104;29;20417;-72
2023/10/24 11:52:31;;;;;;;19.37;12.33;;;;;;;;;;4955773;28;20449;-72
2023/10/24 11:54:57;;;;;;;22.07;14.23;;;;;;;;;;4951592;29;20499;-71
2023/10/24 11:57:23;;;;;;;27.73;15.00;;;;;;;;;;4955728;28;20447;-73
2023/10/24 11:59:51;;;;;;;18.87;12.40;;;;;;;;;;4946521;29;20552;-71
2023/10/24 12:02:17;;;;;;;22.87;13.50;;;;;;;;;;4954739;29;20408;-72
2023/10/24 12:04:50;;;;;;;23.53;13.80;;;;;;;;;;4956067;29;20433;-72
2023/10/24 12:07:16;;;;;;;25.53;13.60;;;;;;;;;;4956399;28;20413;-72
2023/10/24 12:09:42;;;;;;;21.87;13.23;;;;;;;;;;4955757;29;20900;-74
2023/10/24 12:12:08;;;;;;;27.87;15.40;;;;;;;;;;4955391;29;20468;-74
2023/10/24 12:14:38;;;;;;;27.03;14.83;;;;;;;;;;4957523;29;20469;-72
2023/10/24 12:17:04;;;;;;;37.93;18.07;;;;;;;;;;4961875;28;20424;-72
2023/10/24 12:19:30;;;;;;;31.73;19.50;;;;;;;;;;4955159;28;20471;-72
2023/10/24 12:21:56;;;;;;;28.07;14.87;;;;;;;;;;4954828;28;20409;-72
2023/10/24 12:24:22;;;;;;;25.43;15.63;;;;;;;;;;4955097;28;20457;-71
2023/10/24 12:26:48;;;;;;;22.27;14.80;;;;;;;;;;4955705;28;20493;-70
2023/10/24 12:29:14;;;;;;;20.23;13.20;;;;;;;;;;4955298;28;20405;-70
2023/10/24 12:31:41;;;;;;;28.93;16.40;;;;;;;;;;4955932;28;20411;-71
2023/10/24 12:34:10;;;;;;;30.83;15.47;;;;;;;;;;4955272;28;20433;-72
2023/10/24 12:36:36;;;;;;;25.60;14.43;;;;;;;;;;4958411;28;20961;-70
2023/10/24 12:39:02;;;;;;;29.80;17.55;;;;;;;;;;4970312;28;20420;-71
2023/10/24 12:41:29;;;;;;;29.70;15.13;;;;;;;;;;4960770;28;20465;-71
2023/10/24 12:43:55;;;;;;;23.97;14.90;;;;;;;;;;4955526;28;20456;-71
2023/10/24 12:46:21;;;;;;;26.10;13.30;;;;;;;;;;4955764;28;20939;-69
2023/10/24 12:48:47;;;;;;;29.80;17.40;;;;;;;;;;4954927;28;20483;-71
2023/10/24 12:51:13;;;;;;;24.83;13.90;;;;;;;;;;4961799;28;20428;-72
2023/10/24 12:53:40;;;;;;;21.07;11.10;;;;;;;;;;4977537;28;20468;-73
2023/10/24 12:56:07;;;;;;;20.20;11.20;;;;;;;;;;4975128;28;20473;-72
2023/10/24 12:58:33;;;;;;;23.63;11.43;;;;;;;;;;4977453;28;20523;-75
2023/10/24 13:00:59;;;;;;;21.10;10.37;;;;;;;;;;4976879;28;20487;-72
2023/10/24 13:03:25;;;;;;;19.70;11.13;;;;;;;;;;4967192;28;21235;-69
2023/10/24 13:05:51;;;;;;;21.90;12.43;;;;;;;;;;4957213;28;20460;-70
2023/10/24 13:08:18;;;;;;;20.30;10.47;;;;;;;;;;4956572;28;20413;-69
2023/10/24 13:10:44;;;;;;;18.80;11.40;;;;;;;;;;4955843;28;20417;-70
2023/10/24 13:13:10;;;;;;;21.53;11.33;;;;;;;;;;4955123;28;20413;-70
2023/10/24 13:15:36;;;;;;;17.77;10.17;;;;;;;;;;4955533;28;20425;-71
2023/10/24 13:18:02;;;;;;;19.57;10.50;;;;;;;;;;4954769;28;20425;-70
2023/10/24 13:20:28;;;;;;;16.83;9.23;;;;;;;;;;4948000;28;20487;-70
2023/10/24 13:22:54;;;;;;;17.90;10.90;;;;;;;;;;4955054;29;20425;-70
2023/10/24 13:25:20;;;;;;;17.50;10.80;;;;;;;;;;4954466;29;20441;-70
2023/10/24 13:27:46;;;;;;;15.93;9.40;;;;;;;;;;4954465;29;20439;-70
2023/10/24 13:30:12;;;;;;;15.90;9.67;;;;;;;;;;4954020;28;20440;-71
2023/10/24 13:32:38;;;;;;;19.23;12.50;;;;;;;;;;4954393;28;20423;-71
2023/10/24 13:35:05;;;;;;;28.27;11.33;;;;;;;;;;4953617;28;20432;-70
2023/10/24 13:37:31;;;;;;;19.30;10.83;;;;;;;;;;4950846;29;20527;-70
2023/10/24 13:39:57;;;;;;;25.20;12.10;;;;;;;;;;4954442;29;20475;-70
2023/10/24 13:42:23;;;;;;;24.60;10.73;;;;;;;;;;4961342;29;20413;-69
2023/10/24 13:44:49;;;;;;;19.50;11.07;;;;;;;;;;4948007;28;20457;-71
2023/10/24 13:47:15;;;;;;;18.43;11.47;;;;;;;;;;4945688;28;20424;-70
2023/10/24 13:49:41;;;;;;;17.60;10.03;;;;;;;;;;4957251;28;20568;-72
2023/10/24 13:52:07;;;;;;;24.23;11.03;;;;;;;;;;4940652;29;20433;-71
2023/10/24 13:54:33;;;;;;;22.57;10.30;;;;;;;;;;4947455;29;20471;-69
2023/10/24 13:56:59;;;;;;;19.73;10.70;;;;;;;;;;4941974;29;20783;-71
2023/10/24 13:59:26;;;;;;;18.90;9.70;;;;;;;;;;4939029;29;20463;-70
2023/10/24 14:01:52;;;;;;;20.17;12.10;;;;;;;;;;4952090;29;20481;-69
2023/10/24 14:04:18;;;;;;;25.00;12.57;;;;;;;;;;4952803;29;20453;-70
2023/10/24 14:06:44;;;;;;;15.97;9.90;;;;;;;;;;4948662;29;20813;-69
2023/10/24 14:09:13;;;;;;;18.40;11.40;;;;;;;;;;4944870;29;20520;-77
2023/10/24 14:11:39;;;;;;;19.97;11.37;;;;;;;;;;4957772;29;20421;-73
2023/10/24 14:14:05;;;;;;;21.37;11.77;;;;;;;;;;4940293;29;21079;-72
2023/10/24 14:16:32;;;;;;;22.93;11.13;;;;;;;;;;4956134;29;20889;-70
2023/10/24 14:18:59;;;;;;;24.80;12.90;;;;;;;;;;4949133;28;20428;-69
2023/10/24 14:21:25;;;;;;;20.33;12.43;;;;;;;;;;4952325;29;20483;-71
2023/10/24 14:23:51;;;;;;;23.23;11.17;;;;;;;;;;4944907;29;20757;-71
2023/10/24 14:26:18;;;;;;;20.30;11.20;;;;;;;;;;4948329;29;20500;-71
2023/10/24 14:28:44;;;;;;;21.20;11.13;;;;;;;;;;4933484;29;20440;-71
2023/10/24 14:31:10;;;;;;;20.13;11.40;;;;;;;;;;4933022;29;20428;-71
2023/10/24 14:33:37;;;;;;;22.47;10.93;;;;;;;;;;4958578;28;20449;-71
2023/10/24 14:36:03;;;;;;;24.27;10.67;;;;;;;;;;4956806;28;20428;-70
2023/10/24 14:38:29;;;;;;;16.87;9.70;;;;;;;;;;4965699;28;20415;-72
2023/10/24 14:40:57;;;;;;;19.73;10.30;;;;;;;;;;4960210;28;21023;-72
2023/10/24 14:43:23;;;;;;;27.43;11.30;;;;;;;;;;4953569;28;20451;-70
2023/10/24 14:45:49;;;;;;;17.50;9.90;;;;;;;;;;4954409;28;20464;-71
2023/10/24 14:48:15;;;;;;;16.07;10.30;;;;;;;;;;4956950;28;20441;-72
2023/10/24 14:50:41;;;;;;;15.37;10.20;;;;;;;;;;4957106;28;20487;-73
2023/10/24 14:53:08;;;;;;;16.57;9.33;;;;;;;;;;4955771;29;20532;-72
2023/10/24 14:55:34;;;;;;;17.63;9.50;;;;;;;;;;4964741;28;20520;-71
2023/10/24 14:58:00;;;;;;;16.83;11.43;;;;;;;;;;4973247;28;21044;-72
2023/10/24 15:00:26;;;;;;;21.00;10.67;;;;;;;;;;4965390;28;20464;-72
2023/10/24 15:02:52;;;;;;;19.20;10.40;;;;;;;;;;4957414;29;20408;-71
2023/10/24 15:05:18;;;;;;;17.93;9.53;;;;;;;;;;4957023;29;20424;-71
2023/10/24 15:07:44;;;;;;;22.13;10.43;;;;;;;;;;4956981;29;20899;-71
2023/10/24 15:10:10;;;;;;;18.23;10.17;;;;;;;;;;4957071;29;20417;-73
2023/10/24 15:12:36;;;;;;;18.20;10.43;;;;;;;;;;4956913;28;20404;-72
2023/10/24 15:15:02;;;;;;;13.90;7.87;;;;;;;;;;4955444;29;20465;-74
2023/10/24 15:17:28;;;;;;;12.57;8.60;;;;;;;;;;4956791;29;20823;-74
2023/10/24 15:19:55;;;;;;;16.83;9.10;;;;;;;;;;4955513;29;20847;-74
2023/10/24 15:22:21;;;;;;;17.40;8.50;;;;;;;;;;4956986;29;20491;-72
2023/10/24 15:24:47;;;;;;;14.50;6.90;;;;;;;;;;4956435;29;20501;-72
2023/10/24 15:27:13;;;;;;;11.57;6.10;;;;;;;;;;4956071;29;20425;-74
2023/10/24 15:29:39;;;;;;;20.50;6.43;;;;;;;;;;4955858;28;20432;-73
2023/10/24 15:32:08;;;;;;;8.80;5.87;;;;;;;;;;4959759;28;20439;-73
2023/10/24 15:34:34;;;;;;;15.83;4.70;;;;;;;;;;4968072;28;20463;-73
2023/10/24 15:37:00;;;;;;;9.70;4.10;;;;;;;;;;4975711;28;20423;-73
2023/10/24 15:39:26;;;;;;;8.43;4.27;;;;;;;;;;4975144;28;20435;-72
2023/10/24 15:41:52;;;;;;;7.00;4.87;;;;;;;;;;4976051;28;20806;-72
2023/10/24 15:44:18;;;;;;;5.93;4.00;;;;;;;;;;4975755;28;20914;-72
2023/10/24 15:46:44;;;;;;;6.80;4.30;;;;;;;;;;4974025;28;20414;-73
2023/10/24 15:49:11;;;;;;;7.23;3.80;;;;;;;;;;4955767;28;20429;-75
2023/10/24 15:51:38;;;;;;;6.00;3.93;;;;;;;;;;4955985;29;20413;-73
2023/10/24 15:54:05;;;;;;;9.03;5.27;;;;;;;;;;4954843;28;20429;-72
2023/10/24 15:56:30;;;;;;;12.30;5.50;;;;;;;;;;4955138;28;20809;-72
2023/10/24 15:58:56;;;;;;;7.90;4.77;;;;;;;;;;4955946;29;20416;-73
2023/10/24 16:01:25;;;;;;;8.33;5.60;;;;;;;;;;4954553;29;20465;-74
2023/10/24 16:03:52;;;;;;;7.47;4.87;;;;;;;;;;4975199;28;20522;-73
2023/10/24 16:06:19;;;;;;;8.60;4.30;;;;;;;;;;4956183;28;20408;-75
2023/10/24 16:08:45;;;;;;;6.20;4.70;;;;;;;;;;4950555;29;20414;-75
2023/10/24 16:11:11;;;;;;;5.53;4.20;;;;;;;;;;4955513;29;20424;-73
2023/10/24 16:13:37;;;;;;;8.50;4.97;;;;;;;;;;4955505;28;20449;-73
2023/10/24 16:16:03;;;;;;;11.43;5.90;;;;;;;;;;4955904;28;20410;-73
2023/10/24 16:18:29;;;;;;;8.87;5.10;;;;;;;;;;4961517;28;20926;-72
2023/10/24 16:20:59;;;;;;;6.53;5.00;;;;;;;;;;4963635;28;20571;-74
2023/10/24 16:23:26;;;;;;;7.43;5.43;;;;;;;;;;4956686;28;20441;-72
2023/10/24 16:25:56;;;;;;;8.20;5.33;;;;;;;;;;4948198;29;20532;-71
2023/10/24 16:28:22;;;;;;;8.63;4.57;;;;;;;;;;4948471;28;20434;-72
2023/10/24 16:30:48;;;;;;;9.43;5.10;;;;;;;;;;4955115;29;20422;-70
2023/10/24 16:33:14;;;;;;;7.17;3.90;;;;;;;;;;4946444;29;20428;-70
2023/10/24 16:35:40;;;;;;;6.47;4.53;;;;;;;;;;4946719;29;20828;-70
2023/10/24 16:38:06;;;;;;;8.50;4.73;;;;;;;;;;4942720;29;20430;-71
2023/10/24 16:40:32;;;;;;;5.67;4.00;;;;;;;;;;4939322;29;20959;-73
2023/10/24 16:42:58;;;;;;;6.33;4.30;;;;;;;;;;4943605;29;20417;-71
2023/10/24 16:45:25;;;;;;;6.87;4.83;;;;;;;;;;4942644;29;20437;-70
2023/10/24 16:47:51;;;;;;;11.63;4.97;;;;;;;;;;4947111;28;20445;-71
2023/10/24 16:50:17;;;;;;;7.90;4.07;;;;;;;;;;4954886;28;20413;-71
2023/10/24 16:52:43;;;;;;;9.97;4.67;;;;;;;;;;4955215;29;21111;-71
2023/10/24 16:55:09;;;;;;;7.53;4.13;;;;;;;;;;4955703;29;20443;-72
2023/10/24 16:57:35;;;;;;;6.40;4.30;;;;;;;;;;4956360;29;20432;-72
2023/10/24 17:00:03;;;;;;;11.03;4.90;;;;;;;;;;4955557;29;20455;-71
2023/10/24 17:02:29;;;;;;;6.30;3.43;;;;;;;;;;4957219;28;20468;-73
2023/10/24 17:04:55;;;;;;;8.63;5.03;;;;;;;;;;4956381;29;20436;-71
2023/10/24 17:07:21;;;;;;;12.90;6.80;;;;;;;;;;4958570;29;20424;-72
2023/10/24 17:09:47;;;;;;;11.20;5.70;;;;;;;;;;4964711;28;20440;-72
2023/10/24 17:12:13;;;;;;;12.30;6.37;;;;;;;;;;4965665;28;20416;-71
2023/10/24 17:14:39;;;;;;;7.23;3.63;;;;;;;;;;4999324;23;20872;-72
2023/10/24 17:17:05;;;;;;;7.33;3.93;;;;;;;;;;5006725;28;20426;-74
2023/10/24 17:19:31;;;;;;;4.70;3.03;;;;;;;;;;5006890;28;20415;-71
2023/10/24 17:21:57;;;;;;;2.80;2.60;;;;;;;;;;5005785;28;20501;-69
2023/10/24 17:24:22;;;;;;;3.00;2.20;;;;;;;;;;4993281;28;20934;-69
2023/10/24 17:26:48;;;;;;;6.33;2.40;;;;;;;;;;4982511;28;20790;-69
2023/10/24 17:29:14;;;;;;;2.27;1.80;;;;;;;;;;4992471;28;20414;-69
2023/10/24 17:31:41;;;;;;;1.90;1.70;;;;;;;;;;4999126;28;20406;-69
2023/10/24 17:34:08;;;;;;;2.23;2.10;;;;;;;;;;5012239;28;20805;-69
2023/10/24 17:36:34;;;;;;;3.43;2.13;;;;;;;;;;4998631;28;20414;-69
2023/10/24 17:39:00;;;;;;;3.17;2.17;;;;;;;;;;5004284;28;20414;-69
2023/10/24 17:41:26;;;;;;;7.23;2.50;;;;;;;;;;5007541;28;20466;-69
2023/10/24 17:43:52;;;;;;;6.40;2.90;;;;;;;;;;4981078;28;20450;-69
2023/10/24 17:46:18;;;;;;;3.53;2.57;;;;;;;;;;4982436;28;20518;-71
2023/10/24 17:48:45;;;;;;;2.63;2.50;;;;;;;;;;4992962;28;20427;-71
2023/10/24 17:51:11;;;;;;;3.20;2.80;;;;;;;;;;4988803;28;20933;-71
2023/10/24 17:53:38;;;;;;;3.00;2.60;;;;;;;;;;4988952;28;20431;-70
2023/10/24 17:56:04;;;;;;;6.00;3.60;;;;;;;;;;4991538;28;20915;-71
2023/10/24 17:58:30;;;;;;;4.17;3.17;;;;;;;;;;4985894;28;20422;-71
2023/10/24 18:00:56;;;;;;;3.60;3.03;;;;;;;;;;4990964;28;20479;-71
2023/10/24 18:03:23;;;;;;;6.40;3.60;;;;;;;;;;4989844;28;20433;-70
2023/10/24 18:05:49;;;;;;;7.07;4.10;;;;;;;;;;4991602;28;20488;-70
2023/10/24 18:08:15;;;;;;;5.80;3.20;;;;;;;;;;4987788;28;21016;-71
2023/10/24 18:10:41;;;;;;;9.50;5.17;;;;;;;;;;4982319;28;20428;-71
2023/10/24 18:13:07;;;;;;;5.90;3.93;;;;;;;;;;4968990;28;20427;-71
2023/10/24 18:15:35;;;;;;;7.67;3.73;;;;;;;;;;4983723;28;20471;-71
2023/10/24 18:18:01;;;;;;;6.33;4.30;;;;;;;;;;4980656;28;20438;-71
2023/10/24 18:20:28;;;;;;;3.93;3.63;;;;;;;;;;4983491;28;20798;-71
2023/10/24 18:22:53;;;;;;;6.00;3.47;;;;;;;;;;4985200;28;20435;-71
2023/10/24 18:25:20;;;;;;;4.83;3.37;;;;;;;;;;4987881;28;20493;-71
2023/10/24 18:27:46;;;;;;;4.17;3.73;;;;;;;;;;4985344;28;20490;-71
2023/10/24 18:30:12;;;;;;;7.00;3.80;;;;;;;;;;4980306;28;20428;-71
2023/10/24 18:32:38;;;;;;;8.97;4.30;;;;;;;;;;4991409;28;20505;-71
2023/10/24 18:35:04;;;;;;;6.07;4.27;;;;;;;;;;4982271;28;20439;-71
2023/10/24 18:37:31;;;;;;;11.73;4.00;;;;;;;;;;4982340;28;20419;-71
2023/10/24 18:39:57;;;;;;;7.03;4.40;;;;;;;;;;4987762;28;20457;-71
2023/10/24 18:42:25;;;;;;;4.03;3.30;;;;;;;;;;4986130;28;20875;-72
2023/10/24 18:44:51;;;;;;;5.10;4.20;;;;;;;;;;4985858;28;20801;-72
2023/10/24 18:47:17;;;;;;;5.73;3.73;;;;;;;;;;4991229;28;20510;-72
2023/10/24 18:49:46;;;;;;;4.90;4.07;;;;;;;;;;4990855;28;20443;-72
2023/10/24 18:52:12;;;;;;;3.80;3.00;;;;;;;;;;4986055;28;20432;-72
2023/10/24 18:54:38;;;;;;;6.17;3.90;;;;;;;;;;4992421;28;20450;-72
2023/10/24 18:57:04;;;;;;;6.37;3.70;;;;;;;;;;4983321;28;20423;-71
2023/10/24 18:59:32;;;;;;;5.70;4.43;;;;;;;;;;5000165;28;20426;-71
2023/10/24 19:01:58;;;;;;;7.03;3.80;;;;;;;;;;4993772;28;20424;-72
2023/10/24 19:04:24;;;;;;;7.03;3.43;;;;;;;;;;4996014;28;20556;-71
2023/10/24 19:06:50;;;;;;;5.00;3.43;;;;;;;;;;4984802;28;20606;-72
2023/10/24 19:09:16;;;;;;;4.73;3.53;;;;;;;;;;4995073;28;20412;-72
2023/10/24 19:11:42;;;;;;;5.73;3.97;;;;;;;;;;4993376;28;20419;-72
2023/10/24 19:14:08;;;;;;;4.80;3.03;;;;;;;;;;5000051;28;20509;-73
2023/10/24 19:16:35;;;;;;;6.43;4.40;;;;;;;;;;4979565;28;20419;-72
2023/10/24 19:19:01;;;;;;;8.47;5.53;;;;;;;;;;4984219;28;20427;-72
2023/10/24 19:21:27;;;;;;;6.13;3.97;;;;;;;;;;4993379;28;20471;-72
2023/10/24 19:23:53;;;;;;;9.03;5.00;;;;;;;;;;4986704;28;20434;-73